»·PEaware :: N437PD L70-KIZA

N437PD :: L70-KIZA

FLIGHT INFORMATION

Flight Status: Arrived
Operator: Privately registered:
United States
More flights under this callsign
Pilot: Michael F. (10210)
Aircraft: CESSNA 182 SKYLANE
(C182)
More flights by this aircraft type
Origin: L70 Agua Dulce
United States
Destination: KIZA Santa Ynez
United States
More flights between these airports :: More routes between these airports
Route: SAUGS V386 RZS
File this flight plan on PilotEdge
Remarks:
Altitude:
(Current/Filed)
6,500ft
Speed:
(Current/Filed)
130kts
Departed: 23-Oct-17 08:14 AM
Arrived: 23-Oct-17 08:57 AM
Distance/Time
Traveled:
87nm/0:43
Distance/Time
To Go:
Arrived

Flight Plot

Page will automatically refresh every two minutes.

Flight plan parsing failed; only flown route is shown


Map Options




Map Legend


Flown Route
Filed Route
Departure Airport
Arrival Airport
Navaid (VOR, NDB)
Fix

Horizontal Profiles

Position Reports

Time Latitude Longitude Heading Altitude Ground
Speed
23-Oct-17 08:11 34.504154 -118.313211 144 2605ft 0kts
23-Oct-17 08:12 34.504153 -118.313210 144 2605ft 0kts
23-Oct-17 08:13 34.504151 -118.313208 144 2605ft 0kts
23-Oct-17 08:14 34.504149 -118.313206 144 2605ft 0kts
23-Oct-17 08:15 34.504106 -118.313051 62 2605ft 6kts
23-Oct-17 08:16 34.506508 -118.309173 52 2605ft 16kts
23-Oct-17 08:17 34.507733 -118.307184 95 2605ft 0kts
23-Oct-17 08:18 34.507733 -118.307178 95 2605ft 0kts
23-Oct-17 08:19 34.503368 -118.313354 232 2651ft 87kts
23-Oct-17 08:20 34.497696 -118.342602 279 3638ft 95kts
23-Oct-17 08:21 34.500649 -118.375390 278 4613ft 99kts
23-Oct-17 08:22 34.500956 -118.409769 261 5511ft 106kts
23-Oct-17 08:23 34.496883 -118.445577 261 6456ft 112kts
23-Oct-17 08:24 34.480887 -118.484511 255 6632ft 145kts
23-Oct-17 08:25 34.474991 -118.534711 262 6616ft 156kts
23-Oct-17 08:26 34.456776 -118.584434 239 6429ft 162kts
23-Oct-17 08:27 34.439475 -118.632043 247 6489ft 155kts
23-Oct-17 08:28 34.423417 -118.680449 247 6494ft 157kts
23-Oct-17 08:29 34.407092 -118.729753 247 6467ft 157kts
23-Oct-17 08:30 34.390883 -118.778559 247 6448ft 155kts
23-Oct-17 08:31 34.374783 -118.827115 249 6434ft 157kts
23-Oct-17 08:32 34.358697 -118.875046 245 6414ft 156kts
23-Oct-17 08:33 34.361052 -118.924555 282 6411ft 157kts
23-Oct-17 08:34 34.370701 -118.975901 285 6393ft 154kts
23-Oct-17 08:35 34.381431 -119.026290 285 6398ft 159kts
23-Oct-17 08:36 34.392845 -119.078906 285 6384ft 161kts
23-Oct-17 08:37 34.402430 -119.131440 282 6442ft 154kts
23-Oct-17 08:38 34.410246 -119.182409 277 6497ft 155kts
23-Oct-17 08:39 34.417744 -119.234200 281 6521ft 159kts
23-Oct-17 08:40 34.427660 -119.287073 281 6516ft 161kts
23-Oct-17 08:41 34.436122 -119.340251 282 6507ft 157kts
23-Oct-17 08:42 34.446343 -119.391101 284 6515ft 154kts
23-Oct-17 08:43 34.455479 -119.442216 284 6501ft 156kts
23-Oct-17 08:44 34.464491 -119.494001 280 6503ft 160kts
23-Oct-17 08:45 34.472075 -119.547494 278 6495ft 162kts
23-Oct-17 08:46 34.479311 -119.599935 282 6484ft 162kts
23-Oct-17 08:47 34.489864 -119.653122 280 6483ft 163kts
23-Oct-17 08:48 34.499163 -119.703624 286 6244ft 122kts
23-Oct-17 08:49 34.505295 -119.745548 282 6703ft 130kts
23-Oct-17 08:50 34.514514 -119.791598 294 6478ft 149kts
23-Oct-17 08:51 34.529278 -119.832478 298 6278ft 124kts
23-Oct-17 08:52 34.545665 -119.869136 303 5856ft 121kts
23-Oct-17 08:53 34.560390 -119.906998 291 5316ft 125kts
23-Oct-17 08:54 34.572722 -119.946146 292 4498ft 123kts
23-Oct-17 08:55 34.584901 -119.984355 295 3608ft 117kts
23-Oct-17 08:56 34.596557 -120.021532 293 2973ft 117kts
23-Oct-17 08:57 34.606868 -120.055917 293 2206ft 107kts
23-Oct-17 08:58 34.615278 -120.087840 285 1679ft 98kts
23-Oct-17 08:59 34.599560 -120.096719 108 1809ft 116kts
23-Oct-17 09:00 34.596095 -120.063216 96 1588ft 77kts
23-Oct-17 09:01 34.605067 -120.059096 272 941ft 71kts
23-Oct-17 09:02 34.607048 -120.077080 347 674ft 5kts
23-Oct-17 09:03 34.607534 -120.076097 42 674ft 6kts
23-Oct-17 09:04 34.607516 -120.074865 185 674ft 0kts
23-Oct-17 09:05 34.607515 -120.074866 185 674ft 0kts

Navigation Log

Ident Type
Flight plan parsing failed, navigation log unavailable